Time;durP1;ratioP1;P1;durP2;ratioP2;P2;SDS_P1;SDS_P2;PMS_P1;PMS_P2;Temp;Humidity;BMP_temperature;BMP_pressure;BME280_temperature;BME280_humidity;BME280_pressure;Samples;Min_cycle;Max_cycle;Signal;HPM_P1;HPM_P2
2021/06/03 00:00:46;;;;;;;12.98;8.43;;;;;;;15.26;100.00;101450.22;4919440;29;20428;-74
2021/06/03 00:03:35;;;;;;;11.30;8.43;;;;;;;15.13;100.00;101454.09;4919331;29;20441;-74
2021/06/03 00:06:21;;;;;;;13.38;8.93;;;;;;;15.51;100.00;101454.00;4918383;29;20024;-75
2021/06/03 00:09:07;;;;;;;14.68;9.05;;;;;;;15.59;100.00;101448.53;4918844;29;20384;-74
2021/06/03 00:11:53;;;;;;;12.30;9.10;;;;;;;15.56;100.00;101453.91;4918797;29;20115;-75
2021/06/03 00:14:39;;;;;;;12.73;9.85;;;;;;;15.33;100.00;101461.50;4918753;29;20040;-75
2021/06/03 00:17:25;;;;;;;14.50;9.95;;;;;;;15.61;100.00;101458.16;4917782;29;20449;-75
2021/06/03 00:20:15;;;;;;;16.52;11.50;;;;;;;15.69;100.00;101461.47;4918379;29;20118;-73
2021/06/03 00:23:03;;;;;;;11.55;8.68;;;;;;;15.87;100.00;101458.31;4904269;29;20028;-74
2021/06/03 00:25:49;;;;;;;10.05;7.88;;;;;;;15.62;100.00;101461.66;4904580;29;20036;-74
2021/06/03 00:28:35;;;;;;;10.57;7.85;;;;;;;15.76;100.00;101470.09;4904429;29;20028;-75
2021/06/03 00:31:21;;;;;;;11.02;8.52;;;;;;;15.56;100.00;101461.81;4918752;29;20093;-75
2021/06/03 00:34:07;;;;;;;10.02;7.85;;;;;;;15.62;100.00;101465.16;4918195;29;20039;-75
2021/06/03 00:36:53;;;;;;;9.35;7.93;;;;;;;15.61;100.00;101463.44;4904887;29;20503;-75
2021/06/03 00:39:39;;;;;;;14.80;8.07;;;;;;;15.68;100.00;101462.38;4904355;29;20036;-75
2021/06/03 00:42:26;;;;;;;11.10;8.10;;;;;;;16.01;100.00;101448.25;4904876;29;20059;-75
2021/06/03 00:45:15;;;;;;;8.98;7.30;;;;;;;15.43;100.00;101457.78;4918402;29;20450;-74
2021/06/03 00:48:01;;;;;;;10.63;7.70;;;;;;;15.56;100.00;101453.91;4918191;29;20346;-74
2021/06/03 00:50:51;;;;;;;17.15;7.60;;;;;;;15.25;100.00;101459.06;4917669;29;20036;-75
2021/06/03 00:53:40;;;;;;;14.27;7.65;;;;;;;15.38;100.00;101452.59;4917844;29;20107;-73
2021/06/03 00:56:26;;;;;;;12.32;7.68;;;;;;;15.86;100.00;101447.78;4918134;29;20039;-74
2021/06/03 00:59:12;;;;;;;10.85;7.68;;;;;;;15.88;100.00;101456.56;4917868;29;20024;-75
2021/06/03 01:01:57;;;;;;;12.77;8.25;;;;;;;15.72;100.00;101444.66;4918159;29;20032;-74
2021/06/03 01:04:43;;;;;;;13.27;8.80;;;;;;;15.31;100.00;101452.75;4919814;29;20028;-74
2021/06/03 01:07:29;;;;;;;10.55;7.80;;;;;;;15.35;100.00;101460.59;4922050;29;20035;-75
2021/06/03 01:10:20;;;;;;;11.05;8.20;;;;;;;15.73;100.00;101444.63;4921384;29;20028;-75
2021/06/03 01:13:09;;;;;;;12.13;7.93;;;;;;;15.76;100.00;101441.91;4921274;29;20096;-75
2021/06/03 01:15:56;;;;;;;16.67;9.30;;;;;;;15.21;100.00;101448.59;4908553;29;20115;-75
2021/06/03 01:18:43;;;;;;;14.90;9.52;;;;;;;15.46;100.00;101449.75;4921838;29;20058;-75
2021/06/03 01:21:34;;;;;;;15.20;10.05;;;;;;;15.84;100.00;101444.31;4907468;29;20061;-75
2021/06/03 01:24:24;;;;;;;18.95;9.80;;;;;;;15.53;100.00;101441.66;4908144;29;20020;-75
2021/06/03 01:27:24;;;;;;;14.82;9.50;;;;;;;15.86;100.00;101440.72;4907686;29;20036;-73
2021/06/03 01:30:27;;;;;;;15.13;9.10;;;;;;;15.77;100.00;101443.63;4920886;29;20034;-75
2021/06/03 01:33:16;;;;;;;16.50;11.38;;;;;;;15.62;100.00;101448.44;4920963;29;20397;-74
2021/06/03 01:36:05;;;;;;;13.48;9.95;;;;;;;15.88;100.00;101446.84;4920494;29;20040;-74
2021/06/03 01:38:52;;;;;;;22.20;10.30;;;;;;;16.03;100.00;101441.13;4914513;29;20060;-74
2021/06/03 01:41:38;;;;;;;12.57;9.43;;;;;;;15.53;100.00;101444.28;4940932;29;20039;-74
2021/06/03 01:44:25;;;;;;;15.80;10.07;;;;;;;15.40;100.00;101450.78;4926837;29;20027;-74
2021/06/03 01:47:12;;;;;;;14.02;9.73;;;;;;;15.71;100.00;101448.22;4923630;29;20040;-74
2021/06/03 01:49:58;;;;;;;20.02;10.60;;;;;;;15.81;100.00;101442.66;4926271;29;20062;-74
2021/06/03 01:52:45;;;;;;;14.13;10.32;;;;;;;15.93;100.00;101433.50;4930569;29;20035;-74
2021/06/03 01:55:31;;;;;;;17.08;10.25;;;;;;;15.93;100.00;101436.13;4916650;29;20039;-74
2021/06/03 01:58:17;;;;;;;18.00;10.15;;;;;;;15.71;100.00;101438.50;4907617;29;20043;-74
2021/06/03 02:01:04;;;;;;;14.60;9.98;;;;;;;15.83;100.00;101435.53;4920100;29;20032;-75
2021/06/03 02:03:50;;;;;;;13.27;10.57;;;;;;;16.06;100.00;101440.16;4919859;29;20021;-75
2021/06/03 02:06:36;;;;;;;15.30;10.00;;;;;;;15.88;100.00;101444.22;4907799;29;20071;-73
2021/06/03 02:09:22;;;;;;;10.98;9.82;;;;;;;16.32;100.00;101441.16;4919291;29;20039;-75
2021/06/03 02:12:11;;;;;;;14.38;10.90;;;;;;;15.40;100.00;101453.44;4919617;29;20055;-75
2021/06/03 02:14:57;;;;;;;16.33;10.60;;;;;;;15.86;100.00;101445.13;4906259;29;20116;-75
2021/06/03 02:17:47;;;;;;;16.13;10.30;;;;;;;15.48;100.00;101463.78;4920159;29;20042;-74
2021/06/03 02:20:37;;;;;;;16.92;10.93;;;;;;;15.88;100.00;101460.06;4919064;29;20039;-73
2021/06/03 02:23:24;;;;;;;14.15;10.00;;;;;;;15.62;100.00;101467.81;4906620;29;20043;-74
2021/06/03 02:26:10;;;;;;;15.45;9.98;;;;;;;15.89;100.00;101468.84;4919512;29;20043;-74
2021/06/03 02:28:57;;;;;;;16.60;11.55;;;;;;;15.97;100.00;101454.53;4920056;29;20131;-74
2021/06/03 02:31:42;;;;;;;16.63;11.18;;;;;;;15.63;100.00;101463.41;4919680;29;20407;-75
2021/06/03 02:34:28;;;;;;;16.23;10.75;;;;;;;15.53;100.00;101464.53;4918847;29;20047;-75
2021/06/03 02:37:16;;;;;;;14.18;10.60;;;;;;;15.47;100.00;101454.16;4907044;29;20458;-74
2021/06/03 02:40:06;;;;;;;13.98;9.73;;;;;;;15.84;100.00;101453.13;4918954;29;20032;-75
2021/06/03 02:42:53;;;;;;;12.82;8.88;;;;;;;15.91;100.00;101451.19;4920059;29;20060;-74
2021/06/03 02:45:38;;;;;;;18.23;8.30;;;;;;;15.92;100.00;101460.84;4919948;29;20339;-75
2021/06/03 02:48:24;;;;;;;9.65;7.40;;;;;;;15.91;100.00;101456.47;4919853;29;20027;-75
2021/06/03 02:51:10;;;;;;;9.43;6.70;;;;;;;16.00;100.00;101450.94;4919276;29;20127;-74
2021/06/03 02:53:56;;;;;;;12.85;6.20;;;;;;;15.86;100.00;101459.22;4906241;29;20095;-74
2021/06/03 02:56:42;;;;;;;9.02;7.25;;;;;;;15.86;100.00;101466.28;4920069;29;20035;-74
2021/06/03 02:59:28;;;;;;;11.15;6.20;;;;;;;15.82;100.00;101464.63;4906164;29;20024;-75
2021/06/03 03:02:13;;;;;;;7.75;5.50;;;;;;;15.80;100.00;101461.19;4905934;29;20063;-75
2021/06/03 03:04:59;;;;;;;9.57;5.75;;;;;;;15.33;100.00;101466.78;4919913;29;20020;-74
2021/06/03 03:07:45;;;;;;;8.15;5.85;;;;;;;15.47;100.00;101473.47;4919649;29;20115;-75
2021/06/03 03:10:35;;;;;;;11.50;6.03;;;;;;;15.80;100.00;101484.97;4905314;29;20032;-75
2021/06/03 03:13:21;;;;;;;8.98;6.38;;;;;;;15.65;100.00;101480.06;4918981;29;20112;-75
2021/06/03 03:16:07;;;;;;;6.18;5.22;;;;;;;15.17;100.00;101497.09;4919337;29;20047;-75
2021/06/03 03:18:53;;;;;;;11.23;6.28;;;;;;;15.37;100.00;101493.13;4906645;29;20035;-74
2021/06/03 03:21:39;;;;;;;12.50;5.80;;;;;;;15.12;100.00;101498.97;4918815;29;20032;-75
2021/06/03 03:24:25;;;;;;;8.07;5.60;;;;;;;14.73;100.00;101491.09;4919264;29;20033;-75
2021/06/03 03:27:11;;;;;;;7.30;5.63;;;;;;;15.61;100.00;101491.63;4918389;29;20433;-74
2021/06/03 03:29:57;;;;;;;9.90;6.28;;;;;;;15.75;100.00;101497.44;4918901;29;20457;-75
2021/06/03 03:32:43;;;;;;;10.75;6.45;;;;;;;15.70;100.00;101501.94;4918938;29;20091;-75
2021/06/03 03:35:29;;;;;;;10.82;5.82;;;;;;;15.55;100.00;101511.13;4905459;29;20028;-74
2021/06/03 03:38:16;;;;;;;10.25;6.10;;;;;;;15.05;100.00;101506.19;4906296;29;20376;-75
2021/06/03 03:41:02;;;;;;;10.43;6.05;;;;;;;14.94;100.00;101512.63;4918201;29;20032;-75
2021/06/03 03:43:49;;;;;;;10.25;6.15;;;;;;;14.96;100.00;101505.53;4919265;29;20434;-75
2021/06/03 03:46:36;;;;;;;13.02;6.47;;;;;;;15.51;100.00;101513.91;4904871;29;20043;-75
2021/06/03 03:49:23;;;;;;;10.88;5.65;;;;;;;15.51;100.00;101511.25;4918904;29;20040;-74
2021/06/03 03:52:09;;;;;;;12.00;6.50;;;;;;;15.74;100.00;101515.03;4904535;29;20135;-74
2021/06/03 03:54:55;;;;;;;9.30;6.57;;;;;;;15.77;100.00;101516.75;4918914;29;20032;-75
2021/06/03 03:57:43;;;;;;;11.45;6.95;;;;;;;15.75;100.00;101522.06;4918827;29;20107;-74
2021/06/03 04:00:32;;;;;;;12.48;7.03;;;;;;;15.66;100.00;101524.06;4918603;29;20028;-75
2021/06/03 04:03:17;;;;;;;8.38;6.20;;;;;;;15.81;100.00;101526.31;4918593;29;20024;-75
2021/06/03 04:06:04;;;;;;;13.00;6.75;;;;;;;15.94;100.00;101525.09;4918401;29;20032;-75
2021/06/03 04:08:50;;;;;;;11.70;6.55;;;;;;;15.68;100.00;101524.91;4918512;29;20043;-74
2021/06/03 04:11:36;;;;;;;8.70;6.00;;;;;;;15.64;100.00;101533.81;4918132;29;20028;-74
2021/06/03 04:14:21;;;;;;;12.00;6.35;;;;;;;15.61;100.00;101521.56;4917747;29;20047;-75
2021/06/03 04:17:07;;;;;;;10.20;6.55;;;;;;;14.96;100.00;101521.34;4917591;29;20044;-74
2021/06/03 04:19:53;;;;;;;10.38;6.47;;;;;;;15.74;100.00;101525.63;4918419;29;20120;-74
2021/06/03 04:22:39;;;;;;;20.60;7.30;;;;;;;15.48;100.00;101528.06;4904265;29;20020;-74
2021/06/03 04:25:25;;;;;;;8.73;6.78;;;;;;;16.01;100.00;101518.72;4918762;29;20337;-74
2021/06/03 04:28:12;;;;;;;13.38;6.82;;;;;;;16.08;100.00;101523.81;4918409;29;20058;-75
2021/06/03 04:30:58;;;;;;;12.02;6.53;;;;;;;16.33;100.00;101524.88;4918742;29;20058;-74
2021/06/03 04:33:44;;;;;;;13.60;6.40;;;;;;;16.51;100.00;101523.53;4918009;29;20381;-75
2021/06/03 04:36:29;;;;;;;8.73;6.22;;;;;;;16.46;100.00;101523.66;4918433;29;20112;-75
2021/06/03 04:39:16;;;;;;;11.32;6.50;;;;;;;16.87;100.00;101528.59;4920613;29;20024;-75
2021/06/03 04:42:03;;;;;;;11.65;6.75;;;;;;;16.84;100.00;101530.47;4907935;29;20036;-75
2021/06/03 04:44:49;;;;;;;8.93;6.22;;;;;;;17.15;100.00;101534.78;4908201;29;20084;-76
2021/06/03 04:47:35;;;;;;;9.02;6.68;;;;;;;17.02;100.00;101537.84;4920614;29;20429;-75
2021/06/03 04:50:22;;;;;;;10.80;6.47;;;;;;;17.01;100.00;101541.41;4920612;29;20082;-75
2021/06/03 04:53:08;;;;;;;10.45;6.28;;;;;;;17.25;100.00;101536.22;4921816;29;20028;-76
2021/06/03 04:55:54;;;;;;;11.55;6.47;;;;;;;16.94;100.00;101542.50;4921699;29;20032;-75
2021/06/03 04:58:40;;;;;;;8.98;5.65;;;;;;;17.10;100.00;101539.34;4920314;29;20450;-75
2021/06/03 05:01:26;;;;;;;11.43;6.82;;;;;;;16.89;100.00;101544.44;4921817;29;20561;-75
2021/06/03 05:04:12;;;;;;;12.98;6.32;;;;;;;17.26;100.00;101551.19;4921601;29;20088;-75
2021/06/03 05:06:58;;;;;;;13.55;6.78;;;;;;;16.97;100.00;101548.59;4908082;29;20035;-75
2021/06/03 05:09:44;;;;;;;11.98;7.00;;;;;;;16.53;100.00;101548.16;4921507;29;20048;-74
2021/06/03 05:12:29;;;;;;;16.25;6.38;;;;;;;17.29;100.00;101558.19;4920657;29;20063;-75
2021/06/03 05:15:15;;;;;;;12.82;6.22;;;;;;;17.05;100.00;101561.59;4907447;29;20036;-75
2021/06/03 05:18:02;;;;;;;10.60;6.38;;;;;;;17.27;100.00;101560.88;4920417;29;20032;-74
2021/06/03 05:20:48;;;;;;;8.82;5.88;;;;;;;16.99;100.00;101564.41;4921486;29;20036;-75
2021/06/03 05:23:33;;;;;;;9.57;6.30;;;;;;;16.11;100.00;101567.81;4907126;29;20028;-74
2021/06/03 05:26:20;;;;;;;14.63;6.47;;;;;;;16.10;100.00;101577.53;4907515;29;20058;-75
2021/06/03 05:29:07;;;;;;;12.30;6.90;;;;;;;16.24;100.00;101578.00;4906934;29;20039;-76
2021/06/03 05:31:53;;;;;;;12.05;6.55;;;;;;;17.24;100.00;101578.66;4921178;29;20398;-75
2021/06/03 05:34:39;;;;;;;8.85;6.38;;;;;;;17.20;100.00;101584.97;4920662;29;20032;-74
2021/06/03 05:37:25;;;;;;;11.18;6.00;;;;;;;17.10;100.00;101583.50;4921223;29;20028;-76
2021/06/03 05:40:14;;;;;;;9.43;6.35;;;;;;;17.38;100.00;101587.03;4920725;29;20032;-75
2021/06/03 05:43:01;;;;;;;8.48;6.20;;;;;;;17.81;100.00;101590.91;4907245;29;20047;-75
2021/06/03 05:45:47;;;;;;;13.25;6.35;;;;;;;17.19;100.00;101594.66;4907188;29;20032;-74
2021/06/03 05:48:32;;;;;;;11.40;6.03;;;;;;;17.45;100.00;101601.84;4921254;29;20024;-74
2021/06/03 05:51:19;;;;;;;10.52;6.53;;;;;;;17.92;100.00;101609.13;4919829;29;20496;-75
2021/06/03 05:54:05;;;;;;;14.45;6.78;;;;;;;17.92;100.00;101611.78;4920397;29;20020;-75
2021/06/03 05:56:51;;;;;;;11.20;5.72;;;;;;;17.40;100.00;101607.28;4920856;29;20027;-74
2021/06/03 05:59:37;;;;;;;9.80;6.00;;;;;;;17.87;100.00;101617.22;4906790;29;20043;-74
2021/06/03 06:08:38;;;;;;;13.35;6.75;;;;;;;18.27;100.00;101627.34;4920541;29;20029;-75
2021/06/03 06:11:26;;;;;;;9.15;6.40;;;;;;;17.93;100.00;101627.63;4920413;29;20043;-76
2021/06/03 06:14:14;;;;;;;11.65;6.70;;;;;;;17.25;100.00;101628.06;4932570;29;20055;-75
2021/06/03 06:17:00;;;;;;;12.02;6.20;;;;;;;18.06;100.00;101634.28;4921744;29;20033;-73
2021/06/03 06:19:46;;;;;;;11.93;5.82;;;;;;;18.13;100.00;101640.22;4927515;29;20047;-73
2021/06/03 06:22:32;;;;;;;9.98;5.78;;;;;;;18.57;100.00;101634.28;4921307;29;20480;-74
2021/06/03 06:25:18;;;;;;;11.98;6.13;;;;;;;18.57;100.00;101635.13;4928445;29;20032;-73
2021/06/03 06:28:04;;;;;;;10.10;6.03;;;;;;;18.83;100.00;101643.03;4932782;29;20036;-73
2021/06/03 06:30:50;;;;;;;13.57;6.88;;;;;;;18.58;100.00;101649.28;4925915;29;20095;-73
2021/06/03 06:33:37;;;;;;;8.98;6.28;;;;;;;18.61;100.00;101649.19;4919129;29;20032;-73
2021/06/03 06:36:24;;;;;;;11.05;6.65;;;;;;;18.62;100.00;101649.09;4919981;29;20036;-73
2021/06/03 06:39:10;;;;;;;12.05;6.28;;;;;;;18.59;100.00;101648.34;4920504;29;20410;-73
2021/06/03 06:41:56;;;;;;;16.17;5.68;;;;;;;18.40;100.00;101656.09;4919270;29;20501;-73
2021/06/03 06:44:42;;;;;;;11.43;5.70;;;;;;;18.79;100.00;101662.66;4919975;29;20123;-75
2021/06/03 06:47:28;;;;;;;10.60;6.53;;;;;;;18.54;100.00;101668.91;4905744;29;20028;-74
2021/06/03 06:50:14;;;;;;;10.02;5.85;;;;;;;18.88;100.00;101672.94;4919484;29;20032;-74
2021/06/03 06:53:00;;;;;;;9.48;5.82;;;;;;;19.07;100.00;101674.00;4920046;29;20023;-74
2021/06/03 06:55:46;;;;;;;11.10;6.63;;;;;;;19.18;100.00;101681.56;4906949;29;20111;-74
2021/06/03 06:58:32;;;;;;;9.45;5.90;;;;;;;18.65;100.00;101677.34;4919148;29;20035;-74
2021/06/03 07:01:18;;;;;;;9.38;5.95;;;;;;;18.86;100.00;101676.59;4919495;29;20043;-74
2021/06/03 07:04:03;;;;;;;11.90;6.57;;;;;;;19.18;100.00;101670.94;4919582;29;20124;-74
2021/06/03 07:06:49;;;;;;;11.15;6.03;;;;;;;18.35;100.00;101684.59;4905516;29;20039;-74
2021/06/03 07:09:35;;;;;;;11.10;6.20;;;;;;;19.04;100.00;101682.09;4906416;29;20342;-73
2021/06/03 07:12:21;;;;;;;12.20;8.05;;;;;;;19.22;100.00;101692.00;4919124;29;20052;-74
2021/06/03 07:15:09;;;;;;;11.60;6.00;;;;;;;18.36;100.00;101690.75;4919195;29;20033;-74
2021/06/03 07:17:56;;;;;;;10.38;5.63;;;;;;;19.32;100.00;101684.59;4919018;29;20095;-74
2021/06/03 07:20:42;;;;;;;9.35;5.53;;;;;;;19.39;100.00;101687.88;4905350;29;20180;-73
2021/06/03 07:23:28;;;;;;;18.75;9.25;;;;;;;19.30;100.00;101690.91;4905008;29;20061;-75
2021/06/03 07:26:14;;;;;;;22.55;7.10;;;;;;;19.18;100.00;101690.41;4919850;29;20039;-75
2021/06/03 07:29:04;;;;;;;13.45;5.68;;;;;;;19.49;100.00;101694.59;4918765;29;20028;-74
2021/06/03 07:31:50;;;;;;;9.43;5.55;;;;;;;19.96;100.00;101690.91;4919303;29;20120;-76
2021/06/03 07:34:36;;;;;;;8.27;6.45;;;;;;;20.56;100.00;101696.38;4918486;29;20028;-76
2021/06/03 07:37:23;;;;;;;7.85;5.60;;;;;;;19.97;100.00;101693.50;4919211;29;20051;-73
2021/06/03 07:40:11;;;;;;;6.65;5.68;;;;;;;19.78;100.00;101697.88;4917773;29;20020;-74
2021/06/03 07:42:57;;;;;;;9.35;5.32;;;;;;;19.47;100.00;101704.41;4918872;29;20028;-74
2021/06/03 07:45:44;;;;;;;10.10;5.72;;;;;;;20.06;100.00;101706.47;4918219;29;20433;-75
2021/06/03 07:48:30;;;;;;;12.00;5.40;;;;;;;19.86;100.00;101703.75;4918266;29;20047;-75
2021/06/03 07:51:16;;;;;;;9.90;5.78;;;;;;;19.60;100.00;101701.22;4905564;29;20028;-75
2021/06/03 07:54:02;;;;;;;11.13;5.50;;;;;;;19.75;100.00;101708.59;4918255;29;20035;-75
2021/06/03 07:56:48;;;;;;;8.55;5.05;;;;;;;20.18;100.00;101707.78;4904654;29;20031;-74
2021/06/03 07:59:33;;;;;;;14.95;6.40;;;;;;;19.62;100.00;101709.16;4918512;29;20118;-75
2021/06/03 08:02:19;;;;;;;7.68;5.35;;;;;;;19.29;100.00;101708.63;4904719;29;20406;-74
2021/06/03 08:05:06;;;;;;;8.20;5.40;;;;;;;19.17;100.00;101714.41;4918567;29;20028;-75
2021/06/03 08:07:53;;;;;;;11.68;6.65;;;;;;;19.35;100.00;101711.06;4905566;29;20354;-75
2021/06/03 08:10:42;;;;;;;9.80;5.05;;;;;;;19.53;100.00;101715.66;4918101;29;20065;-74
2021/06/03 08:13:27;;;;;;;8.70;5.15;;;;;;;19.39;100.00;101723.31;4917100;29;20055;-74
2021/06/03 08:16:13;;;;;;;10.27;4.55;;;;;;;19.74;100.00;101720.19;4918049;29;20036;-74
2021/06/03 08:18:59;;;;;;;12.23;5.00;;;;;;;20.04;100.00;101729.59;4904799;29;20366;-74
2021/06/03 08:21:45;;;;;;;8.30;5.57;;;;;;;19.94;100.00;101728.25;4904251;29;20047;-76
2021/06/03 08:24:30;;;;;;;7.35;4.32;;;;;;;19.60;100.00;101735.78;4904705;29;20091;-75
2021/06/03 08:27:16;;;;;;;8.68;4.97;;;;;;;19.29;100.00;101737.00;4904646;29;20368;-75
2021/06/03 08:30:05;;;;;;;7.50;4.32;;;;;;;19.40;100.00;101734.84;4904474;29;20453;-75
2021/06/03 08:32:51;;;;;;;9.35;4.30;;;;;;;18.98;100.00;101732.75;4918544;29;20032;-75
2021/06/03 08:35:38;;;;;;;9.05;4.70;;;;;;;18.80;100.00;101736.09;4918208;29;20039;-74
2021/06/03 08:38:24;;;;;;;8.10;4.50;;;;;;;18.39;100.00;101728.69;4918005;29;20044;-75
2021/06/03 08:41:15;;;;;;;7.72;5.13;;;;;;;19.13;100.00;101734.88;4905931;29;20113;-74
2021/06/03 08:44:03;;;;;;;11.00;4.50;;;;;;;19.16;100.00;101740.09;4918428;29;20020;-72
2021/06/03 08:46:49;;;;;;;7.47;4.88;;;;;;;19.02;100.00;101736.19;4905503;29;20032;-75
2021/06/03 08:49:39;;;;;;;8.40;4.57;;;;;;;18.80;100.00;101740.50;4918185;29;20028;-74
2021/06/03 08:52:25;;;;;;;8.05;4.63;;;;;;;19.36;100.00;101741.19;4917429;29;20036;-74
2021/06/03 08:56:14;;;;;;;6.97;4.82;;;;;;;18.90;100.00;101747.25;4918915;29;20020;-75
2021/06/03 08:58:23;;;;;;;8.43;4.35;;;;;;;19.02;100.00;101749.47;4918224;29;20434;-75
2021/06/03 09:01:09;;;;;;;7.30;4.20;;;;;;;19.26;100.00;101748.63;4904719;29;20085;-73
2021/06/03 09:03:58;;;;;;;10.20;4.53;;;;;;;19.10;100.00;101750.91;4918188;29;20110;-75
2021/06/03 09:06:46;;;;;;;10.07;4.20;;;;;;;19.64;100.00;101747.19;4919009;29;20028;-75
2021/06/03 09:09:39;;;;;;;5.57;3.15;;;;;;;19.59;100.00;101757.13;4923311;29;20024;-79
2021/06/03 09:12:34;;;;;;;9.07;3.92;;;;;;;19.83;100.00;101759.72;4920552;29;20474;-75
2021/06/03 09:15:20;;;;;;;4.57;3.17;;;;;;;19.68;100.00;101754.97;4917442;29;20040;-73
2021/06/03 09:18:08;;;;;;;6.10;2.88;;;;;;;19.32;100.00;101768.81;4904178;29;20480;-76
2021/06/03 09:20:55;;;;;;;4.78;2.35;;;;;;;18.90;100.00;101771.16;4903780;29;20067;-75
2021/06/03 09:23:46;;;;;;;4.30;2.40;;;;;;;18.96;100.00;101773.59;4917549;29;20038;-75
2021/06/03 09:26:35;;;;;;;3.97;2.20;;;;;;;18.85;100.00;101773.13;4907618;29;20358;-75
2021/06/03 09:29:32;;;;;;;2.95;1.80;;;;;;;18.83;100.00;101766.97;4920931;29;20059;-75
2021/06/03 09:32:18;;;;;;;6.93;2.60;;;;;;;18.90;100.00;101769.34;4921268;29;20047;-76
2021/06/03 09:35:04;;;;;;;5.82;2.05;;;;;;;19.24;100.00;101768.22;4909052;29;20028;-76
2021/06/03 09:38:03;;;;;;;5.53;1.95;;;;;;;19.20;100.00;101762.97;4908636;29;20032;-75
2021/06/03 09:40:50;;;;;;;3.10;1.80;;;;;;;18.56;100.00;101765.25;4921119;29;20043;-76
2021/06/03 09:43:36;;;;;;;3.05;2.03;;;;;;;18.37;100.00;101753.53;4921229;29;20028;-74
2021/06/03 09:46:21;;;;;;;3.83;1.40;;;;;;;18.13;100.00;101744.53;4920644;29;20384;-75
2021/06/03 09:49:13;;;;;;;4.93;1.60;;;;;;;17.97;100.00;101742.44;4920257;29;20028;-76
2021/06/03 09:52:04;;;;;;;3.35;2.03;;;;;;;18.52;100.00;101747.69;4920417;29;20043;-75
2021/06/03 09:54:56;;;;;;;2.50;1.65;;;;;;;18.83;100.00;101756.34;4920792;29;20059;-75
2021/06/03 09:57:45;;;;;;;2.08;1.38;;;;;;;18.89;100.00;101756.16;4906583;29;20035;-75
2021/06/03 10:00:45;;;;;;;1.63;0.95;;;;;;;19.05;100.00;101760.00;4921601;29;20361;-76
2021/06/03 10:03:49;;;;;;;2.88;1.15;;;;;;;19.34;100.00;101764.28;4920975;29;20362;-75
2021/06/03 10:06:55;;;;;;;2.15;1.10;;;;;;;19.10;100.00;101772.16;4920838;29;20035;-75
2021/06/03 10:10:01;;;;;;;3.10;1.45;;;;;;;19.55;100.00;101768.78;4920387;29;20319;-74
2021/06/03 10:12:49;;;;;;;3.33;1.52;;;;;;;19.35;100.00;101764.22;4919626;29;20051;-75
2021/06/03 10:15:37;;;;;;;1.92;1.30;;;;;;;19.30;100.00;101763.53;4919954;29;20032;-75
2021/06/03 10:18:27;;;;;;;2.13;1.10;;;;;;;19.22;100.00;101757.59;4920323;29;20337;-75
2021/06/03 10:21:13;;;;;;;2.15;1.40;;;;;;;19.41;100.00;101744.53;4920635;29;20036;-75
2021/06/03 10:23:58;;;;;;;4.57;1.75;;;;;;;19.44;100.00;101745.28;4920784;29;20522;-73
2021/06/03 10:27:03;;;;;;;1.92;1.50;;;;;;;19.16;100.00;101747.19;4919325;29;20115;-75
2021/06/03 10:29:50;;;;;;;3.25;2.03;;;;;;;19.21;100.00;101748.75;4920793;29;20062;-75
2021/06/03 10:32:42;;;;;;;2.60;1.80;;;;;;;19.46;100.00;101748.75;4920820;29;20059;-75
2021/06/03 10:35:48;;;;;;;4.18;2.30;;;;;;;18.86;100.00;101746.47;4920965;29;20036;-74
2021/06/03 10:38:35;;;;;;;4.80;2.10;;;;;;;19.52;100.00;101748.50;4920792;29;20479;-75
2021/06/03 10:41:22;;;;;;;3.75;2.35;;;;;;;19.49;100.00;101748.63;4920333;29;20347;-75
2021/06/03 10:44:23;;;;;;;5.20;2.70;;;;;;;19.06;100.00;101757.25;4921119;29;20021;-74
2021/06/03 10:47:11;;;;;;;6.78;3.05;;;;;;;19.39;100.00;101747.25;4921787;29;20032;-75
2021/06/03 10:49:59;;;;;;;5.88;2.80;;;;;;;19.30;100.00;101755.56;4920172;29;20051;-73
2021/06/03 10:52:49;;;;;;;5.53;3.13;;;;;;;19.68;100.00;101752.31;4919683;29;20032;-76
2021/06/03 10:55:41;;;;;;;8.50;3.50;;;;;;;19.51;100.00;101752.09;4919892;29;20100;-72
2021/06/03 10:59:04;;;;;;;11.88;3.25;;;;;;;19.32;100.00;101766.97;4920294;29;20055;-74
2021/06/03 11:04:47;;;;;;;12.07;2.50;;;;;;;19.08;100.00;101762.53;5019831;23;20065;-75
2021/06/03 11:07:34;;;;;;;10.65;2.30;;;;;;;19.38;100.00;101750.84;4920697;29;20036;-73
2021/06/03 11:10:31;;;;;;;16.42;3.03;;;;;;;19.77;100.00;101743.13;4906134;29;20350;-73
2021/06/03 11:13:22;;;;;;;4.80;2.35;;;;;;;20.00;100.00;101757.25;4922882;29;20036;-75
2021/06/03 11:16:32;;;;;;;7.25;2.83;;;;;;;19.41;100.00;101753.34;4922238;29;20103;-74
2021/06/03 11:19:23;;;;;;;6.30;2.28;;;;;;;19.83;100.00;101743.75;4927493;29;20028;-74
2021/06/03 11:22:10;;;;;;;2.58;2.00;;;;;;;20.50;100.00;101750.78;4922762;29;20429;-74
2021/06/03 11:24:56;;;;;;;11.23;2.70;;;;;;;20.76;100.00;101749.66;4925977;29;20024;-74
2021/06/03 11:27:43;;;;;;;6.28;2.40;;;;;;;21.12;100.00;101754.28;4910977;29;20024;-76
2021/06/03 11:30:32;;;;;;;5.78;3.30;;;;;;;20.37;100.00;101746.88;4925616;29;20131;-73
2021/06/03 11:33:18;;;;;;;5.13;2.20;;;;;;;20.24;100.00;101750.09;4948310;23;20390;-75
2021/06/03 11:36:27;;;;;;;4.15;2.17;;;;;;;20.55;100.00;101751.44;4924365;29;20099;-74
2021/06/03 11:39:31;;;;;;;3.47;2.30;;;;;;;20.18;100.00;101739.72;4919363;29;20123;-75
2021/06/03 11:42:28;;;;;;;9.73;2.28;;;;;;;19.73;100.00;101749.50;4917713;29;20027;-74
2021/06/03 11:45:16;;;;;;;6.43;2.10;;;;;;;19.71;100.00;101744.22;4905041;29;20118;-74
2021/06/03 11:48:22;;;;;;;7.75;2.40;;;;;;;19.57;100.00;101748.34;4916834;29;20020;-75
2021/06/03 11:51:08;;;;;;;9.43;3.10;;;;;;;20.14;100.00;101738.09;4904958;29;20064;-75
2021/06/03 11:53:54;;;;;;;6.97;2.17;;;;;;;20.60;100.00;101741.47;4918131;29;20056;-76
2021/06/03 11:56:40;;;;;;;6.45;2.20;;;;;;;20.16;100.00;101742.44;4904891;29;20036;-76
2021/06/03 11:59:54;;;;;;;5.47;2.38;;;;;;;20.55;100.00;101730.16;4904630;29;20039;-74
2021/06/03 12:02:45;;;;;;;4.63;2.30;;;;;;;20.95;100.00;101734.63;4917601;29;20450;-75
2021/06/03 12:05:44;;;;;;;2.83;2.10;;;;;;;21.82;100.00;101720.78;4917877;29;20112;-76
2021/06/03 12:08:34;;;;;;;5.75;2.10;;;;;;;22.54;100.00;101727.00;4918662;29;20036;-76
2021/06/03 12:11:36;;;;;;;4.75;2.33;;;;;;;21.20;100.00;101729.94;4917554;29;20050;-76
2021/06/03 12:14:27;;;;;;;2.67;2.03;;;;;;;21.97;100.00;101733.41;4906302;29;20024;-75
2021/06/03 12:17:14;;;;;;;4.63;2.00;;;;;;;21.89;100.00;101735.56;4905090;29;20136;-75
2021/06/03 12:19:59;;;;;;;7.88;2.33;;;;;;;21.88;100.00;101740.97;4904888;29;20047;-75
2021/06/03 12:22:45;;;;;;;5.25;2.30;;;;;;;21.59;100.00;101744.13;4918246;29;20476;-75
2021/06/03 12:25:37;;;;;;;4.47;1.95;;;;;;;21.67;100.00;101734.84;4904588;29;20024;-74
2021/06/03 12:28:23;;;;;;;5.07;1.77;;;;;;;21.72;100.00;101739.97;4904485;29;20035;-74
2021/06/03 12:31:17;;;;;;;3.42;1.90;;;;;;;21.81;100.00;101744.88;4918763;29;20508;-75
2021/06/03 12:34:03;;;;;;;2.20;1.85;;;;;;;22.61;100.00;101745.31;4904692;29;20127;-75
2021/06/03 12:36:49;;;;;;;6.82;4.20;;;;;;;22.19;100.00;101746.56;4905486;29;20103;-75
2021/06/03 12:39:36;;;;;;;5.82;2.95;;;;;;;21.80;100.00;101748.47;4919019;29;20460;-75
2021/06/03 12:42:25;;;;;;;4.50;2.10;;;;;;;21.94;100.00;101744.22;4904600;29;20110;-75
2021/06/03 12:45:11;;;;;;;3.63;2.03;;;;;;;22.05;100.00;101743.69;4918704;29;20024;-75
2021/06/03 12:47:58;;;;;;;9.60;1.95;;;;;;;20.90;100.00;101741.94;4918123;29;20103;-75
2021/06/03 12:50:47;;;;;;;5.47;1.85;;;;;;;21.40;100.00;101744.13;4905037;29;20043;-75
2021/06/03 12:53:33;;;;;;;5.07;2.15;;;;;;;21.48;100.00;101747.28;4904330;29;20036;-75
2021/06/03 12:56:23;;;;;;;4.57;1.83;;;;;;;21.96;100.00;101742.34;4904339;29;20463;-75